createdAt,value
2023-02-02T00:01:17.909Z,102213.88
2023-02-02T00:06:11.202Z,102216.44
2023-02-02T00:11:06.357Z,102188.56
2023-02-02T00:16:25.592Z,102241.56
2023-02-02T00:21:18.165Z,102223.34
2023-02-02T00:26:14.992Z,102235.50
2023-02-02T00:31:09.075Z,102238.06
2023-02-02T00:36:03.328Z,102225.06
2023-02-02T00:41:13.386Z,102227.72
2023-02-02T00:46:10.729Z,102236.31
2023-02-02T00:51:03.759Z,102228.44
2023-02-02T00:55:55.838Z,102242.22
2023-02-02T01:00:47.265Z,102232.66
2023-02-02T01:05:40.603Z,102239.53
2023-02-02T01:10:31.718Z,102242.09
2023-02-02T01:15:24.269Z,102237.78
2023-02-02T01:20:22.329Z,102242.16
2023-02-02T01:25:19.490Z,102242.00
2023-02-02T01:30:22.804Z,102232.63
2023-02-02T01:35:16.494Z,102232.66
2023-02-02T01:40:11.549Z,102219.78
2023-02-02T01:45:21.715Z,102224.88
2023-02-02T01:50:20.327Z,102216.19
2023-02-02T01:55:25.776Z,102233.59
2023-02-02T02:00:27.546Z,102246.31
2023-02-02T02:05:27.196Z,102243.13
2023-02-02T02:10:19.657Z,102213.50
2023-02-02T02:15:25.170Z,102228.16
2023-02-02T02:21:07.678Z,102243.94
2023-02-02T02:26:39.566Z,102245.59
2023-02-02T02:32:04.201Z,102237.97
2023-02-02T02:37:14.345Z,102241.56
2023-02-02T02:42:13.331Z,102237.09
2023-02-02T02:47:05.344Z,102229.25
2023-02-02T02:52:00.253Z,102242.28
2023-02-02T02:57:23.865Z,102241.56
2023-02-02T03:02:34.166Z,102239.75
2023-02-02T03:07:34.279Z,102245.84
2023-02-02T03:12:25.880Z,102238.94
2023-02-02T03:17:16.662Z,102229.41
2023-02-02T03:22:10.564Z,102241.41
2023-02-02T03:27:10.214Z,102228.56
2023-02-02T03:32:01.611Z,102246.88
2023-02-02T03:36:55.241Z,102246.56
2023-02-02T03:41:54.488Z,102248.25
2023-02-02T03:46:49.063Z,102261.09
2023-02-02T03:51:40.699Z,102262.72
2023-02-02T03:56:33.276Z,102263.22
2023-02-02T04:01:33.106Z,102270.84
2023-02-02T04:06:29.167Z,102271.22
2023-02-02T04:11:22.842Z,102279.91
2023-02-02T04:16:16.742Z,102279.91
2023-02-02T04:21:13.915Z,102267.41
2023-02-02T04:26:10.852Z,102268.16
2023-02-02T04:31:04.248Z,102267.47
2023-02-02T04:35:57.879Z,102273.91
2023-02-02T04:40:53.268Z,102278.88
2023-02-02T04:45:50.557Z,102256.59
2023-02-02T04:50:41.710Z,102276.81
2023-02-02T04:55:32.248Z,102282.94
2023-02-02T05:00:27.262Z,102273.38
2023-02-02T05:05:23.953Z,102291.72
2023-02-02T05:10:18.200Z,102296.16
2023-02-02T05:15:10.854Z,102294.41
2023-02-02T05:20:04.656Z,102286.47
2023-02-02T05:24:59.642Z,102303.00
2023-02-02T05:29:53.593Z,102299.59
2023-02-02T05:34:44.915Z,102282.22
2023-02-02T05:39:38.376Z,102274.38
2023-02-02T05:44:31.664Z,102297.69
2023-02-02T05:49:22.932Z,102293.44
2023-02-02T05:54:17.997Z,102285.66
2023-02-02T05:59:10.340Z,102289.91
2023-02-02T06:04:04.118Z,102289.97
2023-02-02T06:08:55.189Z,102298.50
2023-02-02T06:13:47.145Z,102297.63
2023-02-02T06:18:39.199Z,102305.38
2023-02-02T06:23:36.422Z,102306.72
2023-02-02T06:28:27.749Z,102310.41
2023-02-02T06:33:21.730Z,102300.03
2023-02-02T06:38:13.571Z,102329.72
2023-02-02T06:43:09.596Z,102341.16
2023-02-02T06:48:05.938Z,102359.44
2023-02-02T06:53:05.316Z,102336.72
2023-02-02T06:58:01.681Z,102350.78
2023-02-02T07:02:59.511Z,102351.63
2023-02-02T07:07:52.551Z,102333.38
2023-02-02T07:12:43.817Z,102338.56
2023-02-02T07:17:36.425Z,102349.72
2023-02-02T07:22:29.476Z,102338.25
2023-02-02T07:27:19.463Z,102353.06
2023-02-02T07:32:09.973Z,102338.28
2023-02-02T07:37:02.012Z,102349.81
2023-02-02T07:42:03.315Z,102368.00
2023-02-02T07:47:02.839Z,102360.06
2023-02-02T07:51:56.434Z,102360.78
2023-02-02T07:56:47.607Z,102383.41
2023-02-02T08:01:47.398Z,102401.72
2023-02-02T08:06:43.179Z,102405.44
2023-02-02T08:11:38.947Z,102402.72
2023-02-02T08:16:30.423Z,102398.50
2023-02-02T08:21:24.992Z,102371.50
2023-02-02T08:26:20.657Z,102413.16
2023-02-02T08:31:14.159Z,102391.47
2023-02-02T08:36:07.965Z,102416.81
2023-02-02T08:41:08.970Z,102417.75
2023-02-02T08:46:05.519Z,102422.16
2023-02-02T08:50:57.997Z,102433.84
2023-02-02T08:55:49.342Z,102438.91
2023-02-02T09:00:43.126Z,102444.09
2023-02-02T09:05:38.975Z,102449.53
2023-02-02T09:10:34.402Z,102450.50
2023-02-02T09:15:26.510Z,102456.59
2023-02-02T09:20:22.537Z,102468.69
2023-02-02T09:25:17.252Z,102471.38
2023-02-02T09:30:11.062Z,102476.34
2023-02-02T09:35:05.710Z,102485.09
2023-02-02T09:39:59.616Z,102491.06
2023-02-02T09:45:05.641Z,102490.06
2023-02-02T09:50:04.132Z,102500.78
2023-02-02T09:55:01.761Z,102494.19
2023-02-02T09:59:56.464Z,102491.38
2023-02-02T10:04:52.573Z,102488.16
2023-02-02T10:09:50.981Z,102500.63
2023-02-02T10:14:52.122Z,102503.28
2023-02-02T10:19:45.836Z,102519.72
2023-02-02T10:24:40.687Z,102534.44
2023-02-02T10:29:49.326Z,102527.50
2023-02-02T10:35:12.611Z,102523.28
2023-02-02T10:40:27.174Z,102510.03
2023-02-02T10:45:22.187Z,102524.81
2023-02-02T10:50:29.406Z,102483.59
2023-02-02T10:55:30.387Z,102524.91
2023-02-02T11:00:27.079Z,102531.09
2023-02-02T11:05:41.767Z,102538.91
2023-02-02T11:10:38.113Z,102534.47
2023-02-02T11:15:34.105Z,102526.41
2023-02-02T11:20:39.072Z,102531.75
2023-02-02T11:25:34.306Z,102533.53
2023-02-02T11:30:30.947Z,102540.69
2023-02-02T11:35:35.291Z,102546.56
2023-02-02T11:40:38.545Z,102541.84
2023-02-02T11:45:36.820Z,102537.06
2023-02-02T11:50:33.195Z,102536.00
2023-02-02T11:55:30.725Z,102529.91
2023-02-02T12:00:27.813Z,102529.91
2023-02-02T12:05:39.098Z,102526.66
2023-02-02T12:10:47.699Z,102536.22
2023-02-02T12:15:57.703Z,102526.56
2023-02-02T12:21:06.964Z,102530.94
2023-02-02T12:26:23.628Z,102507.13
2023-02-02T12:31:26.773Z,102522.00
2023-02-02T12:36:30.527Z,102524.56
2023-02-02T12:41:43.537Z,102534.09
2023-02-02T12:47:00.491Z,102523.72
2023-02-02T12:52:09.438Z,102527.03
2023-02-02T12:57:12.097Z,102518.22
2023-02-02T13:02:16.408Z,102490.19
2023-02-02T13:07:39.017Z,102496.34
2023-02-02T13:12:39.449Z,102510.28
2023-02-02T13:17:37.042Z,102490.13
2023-02-02T13:22:39.070Z,102493.63
2023-02-02T13:27:33.839Z,102493.56
2023-02-02T13:32:35.238Z,102482.13
2023-02-02T13:37:42.322Z,102491.59
2023-02-02T13:42:46.013Z,102498.50
2023-02-02T13:47:44.090Z,102499.97
2023-02-02T13:52:59.954Z,102498.19
2023-02-02T13:58:27.377Z,102515.44
2023-02-02T14:03:38.835Z,102493.47
2023-02-02T14:08:34.619Z,102495.94
2023-02-02T14:13:50.077Z,102515.19
2023-02-02T14:18:57.595Z,102518.75
2023-02-02T14:23:59.031Z,102523.25
2023-02-02T14:28:56.049Z,102529.16
2023-02-02T14:33:49.067Z,102535.06
2023-02-02T14:39:07.145Z,102538.63
2023-02-02T14:44:00.748Z,102529.03
2023-02-02T14:49:08.893Z,102545.44
2023-02-02T14:54:10.566Z,102545.41
2023-02-02T14:59:05.278Z,102535.81
2023-02-02T15:03:59.845Z,102544.56
2023-02-02T15:09:11.752Z,102555.03
2023-02-02T15:14:18.107Z,102554.22
2023-02-02T15:19:18.821Z,102543.81
2023-02-02T15:24:29.113Z,102532.63
2023-02-02T15:29:31.700Z,102536.06
2023-02-02T15:34:46.701Z,102540.38
2023-02-02T15:39:43.027Z,102540.38
2023-02-02T15:44:41.325Z,102544.81
2023-02-02T15:49:35.633Z,102557.94
2023-02-02T15:54:28.300Z,102544.88
2023-02-02T15:59:26.562Z,102558.00
2023-02-02T16:04:37.644Z,102551.03
2023-02-02T16:09:35.792Z,102571.63
2023-02-02T16:14:29.143Z,102555.53
2023-02-02T16:19:26.796Z,102586.38
2023-02-02T16:24:23.907Z,102579.19
2023-02-02T16:29:20.269Z,102580.16
2023-02-02T16:34:20.162Z,102580.13
2023-02-02T16:39:20.654Z,102591.31
2023-02-02T16:44:32.694Z,102586.94
2023-02-02T16:49:27.260Z,102587.56
2023-02-02T16:54:25.713Z,102571.69
2023-02-02T16:59:26.535Z,102594.34
2023-02-02T17:04:25.317Z,102599.69
2023-02-02T17:09:35.103Z,102602.41
2023-02-02T17:14:33.452Z,102603.19
2023-02-02T17:19:31.316Z,102605.69
2023-02-02T17:24:25.269Z,102622.28
2023-02-02T17:29:18.177Z,102626.63
2023-02-02T17:34:15.740Z,102619.78
2023-02-02T17:39:09.991Z,102628.25
2023-02-02T17:44:09.409Z,102621.16
2023-02-02T17:49:03.362Z,102628.22
2023-02-02T17:53:55.455Z,102630.06
2023-02-02T17:58:51.178Z,102617.94
2023-02-02T18:03:51.146Z,102623.88
2023-02-02T18:08:47.034Z,102622.00
2023-02-02T18:13:41.863Z,102618.72
2023-02-02T18:18:35.846Z,102591.59
2023-02-02T18:23:30.092Z,102602.09
2023-02-02T18:28:22.159Z,102611.75
2023-02-02T18:33:13.638Z,102607.28
2023-02-02T18:38:03.816Z,102612.44
2023-02-02T18:42:59.697Z,102607.06
2023-02-02T18:47:50.824Z,102604.41
2023-02-02T18:52:42.646Z,102608.59
2023-02-02T18:57:34.358Z,102610.22
2023-02-02T19:02:29.229Z,102597.22
2023-02-02T19:07:35.596Z,102607.59
2023-02-02T19:12:31.581Z,102607.75
2023-02-02T19:17:32.490Z,102581.72
2023-02-02T19:22:25.112Z,102601.81
2023-02-02T19:27:22.817Z,102569.75
2023-02-02T19:32:20.877Z,102590.16
2023-02-02T19:37:26.263Z,102587.59
2023-02-02T19:42:20.780Z,102620.56
2023-02-02T19:47:26.781Z,102609.38
2023-02-02T19:52:26.653Z,102604.44
2023-02-02T19:57:25.898Z,102604.38
2023-02-02T20:02:38.258Z,102610.53
2023-02-02T20:07:37.401Z,102607.91
2023-02-02T20:12:36.605Z,102613.97
2023-02-02T20:17:34.499Z,102601.72
2023-02-02T20:22:30.357Z,102618.38
2023-02-02T20:27:29.222Z,102608.75
2023-02-02T20:32:26.756Z,102629.00
2023-02-02T20:37:26.740Z,102625.44
2023-02-02T20:42:23.679Z,102621.13
2023-02-02T20:47:16.543Z,102625.59
2023-02-02T20:52:15.520Z,102636.78
2023-02-02T20:57:11.235Z,102634.19
2023-02-02T21:02:07.546Z,102640.38
2023-02-02T21:07:03.701Z,102627.16
2023-02-02T21:11:55.886Z,102643.13
2023-02-02T21:16:47.426Z,102639.66
2023-02-02T21:21:39.180Z,102640.19
2023-02-02T21:26:34.936Z,102641.25
2023-02-02T21:31:27.766Z,102649.19
2023-02-02T21:36:35.215Z,102638.53
2023-02-02T21:41:29.332Z,102646.50
2023-02-02T21:46:28.501Z,102632.75
2023-02-02T21:51:31.269Z,102635.34
2023-02-02T21:56:30.772Z,102651.63
2023-02-02T22:01:38.296Z,102649.00
2023-02-02T22:06:34.412Z,102640.38
2023-02-02T22:11:30.145Z,102643.13
2023-02-02T22:16:26.512Z,102625.84
2023-02-02T22:21:21.221Z,102633.53
2023-02-02T22:26:40.921Z,102626.69
2023-02-02T22:31:39.528Z,102609.53
2023-02-02T22:36:35.553Z,102597.38
2023-02-02T22:41:28.142Z,102597.38
2023-02-02T22:46:19.353Z,102608.88
2023-02-02T22:51:13.925Z,102613.78
2023-02-02T22:56:13.528Z,102581.09
2023-02-02T23:01:06.677Z,102568.78
2023-02-02T23:05:57.509Z,102572.28
2023-02-02T23:10:50.780Z,102539.44
2023-02-02T23:15:43.410Z,102532.53
2023-02-02T23:20:38.426Z,102528.09
2023-02-02T23:25:32.933Z,102542.78
2023-02-02T23:30:27.171Z,102547.03
2023-02-02T23:35:22.800Z,102551.53
2023-02-02T23:40:15.482Z,102542.22
2023-02-02T23:45:13.210Z,102547.31
2023-02-02T23:50:11.857Z,102561.00
2023-02-02T23:55:03.963Z,102573.03
2023-02-02T23:59:54.522Z,102567.81
